Time;durP1;ratioP1;P1;durP2;ratioP2;P2;SDS_P1;SDS_P2;PMS_P1;PMS_P2;Temp;Humidity;BMP_temperature;BMP_pressure;BME280_temperature;BME280_humidity;BME280_pressure;Samples;Min_cycle;Max_cycle;Signal;HPM_P1;HPM_P2
2021/01/19 00:01:18;;;;;;;13.90;9.25;;;;;;;-0.92;79.07;96549.67;1738359;81;21102;-79
2021/01/19 00:03:44;;;;;;;10.93;7.67;;;;;;;-0.91;78.97;96547.47;1747092;81;21146;-80
2021/01/19 00:06:10;;;;;;;13.70;9.60;;;;;;;-0.92;78.54;96567.53;1746650;81;21098;-79
2021/01/19 00:08:37;;;;;;;15.75;10.45;;;;;;;-0.93;78.76;96567.17;1748373;81;21110;-79
2021/01/19 00:11:05;;;;;;;23.67;14.28;;;;;;;-0.93;78.84;96572.28;1751915;81;21141;-79
2021/01/19 00:13:31;;;;;;;26.27;14.70;;;;;;;-0.96;78.60;96568.67;1749333;81;21109;-79
2021/01/19 00:15:57;;;;;;;20.72;12.53;;;;;;;-0.98;78.38;96571.76;1746072;81;21519;-79
2021/01/19 00:18:25;;;;;;;32.38;18.32;;;;;;;-1.04;78.08;96570.92;1731871;81;21577;-80
2021/01/19 00:20:51;;;;;;;21.48;12.13;;;;;;;-1.12;77.87;96563.81;1752483;81;21165;-79
2021/01/19 00:23:18;;;;;;;20.80;14.03;;;;;;;-1.21;77.62;96563.97;1743815;81;21137;-80
2021/01/19 00:25:44;;;;;;;19.57;12.55;;;;;;;-1.24;77.86;96556.99;1753073;81;21229;-79
2021/01/19 00:28:11;;;;;;;17.65;12.20;;;;;;;-1.24;78.08;96549.34;1753216;81;21617;-80
2021/01/19 00:30:43;;;;;;;18.07;11.43;;;;;;;-1.22;78.18;96549.59;1747533;81;21113;-79
2021/01/19 00:33:11;;;;;;;16.27;10.20;;;;;;;-1.22;78.23;96550.05;1753380;81;21117;-79
2021/01/19 00:35:37;;;;;;;17.82;11.85;;;;;;;-1.24;78.23;96551.44;1751643;81;21114;-80
2021/01/19 00:38:06;;;;;;;20.02;13.93;;;;;;;-1.24;78.36;96555.26;1746369;81;21110;-79
2021/01/19 00:40:32;;;;;;;15.68;10.10;;;;;;;-1.26;78.33;96551.19;1733898;80;21123;-79
2021/01/19 00:42:58;;;;;;;12.82;9.13;;;;;;;-1.26;78.45;96546.09;1736253;80;21129;-78
2021/01/19 00:45:25;;;;;;;19.17;11.00;;;;;;;-1.27;78.78;96546.55;1734066;80;21249;-78
2021/01/19 00:47:51;;;;;;;16.57;10.72;;;;;;;-1.25;78.82;96545.98;1760330;80;21118;-78
2021/01/19 00:50:17;;;;;;;15.98;10.95;;;;;;;-1.24;78.90;96548.88;1726280;80;21221;-79
2021/01/19 00:52:43;;;;;;;15.75;10.38;;;;;;;-1.25;78.94;96548.53;1732958;80;21421;-78
2021/01/19 00:55:11;;;;;;;16.97;10.38;;;;;;;-1.23;79.08;96547.96;1738202;80;21101;-79
2021/01/19 00:57:37;;;;;;;15.35;12.25;;;;;;;-1.22;79.20;96548.77;1729784;80;21106;-78
2021/01/19 01:00:09;;;;;;;14.45;9.48;;;;;;;-1.22;79.25;96547.04;1749018;80;21114;-79
2021/01/19 01:02:35;;;;;;;;;;;;;;;-1.23;79.40;96542.05;1732593;80;21431;-78
2021/01/19 01:05:04;;;;;;;12.50;8.33;;;;;;;-1.24;79.62;96545.06;1758224;80;20289;-79
2021/01/19 01:07:39;;;;;;;18.23;11.05;;;;;;;-1.25;79.86;96545.16;1756552;80;21113;-79
2021/01/19 01:10:07;;;;;;;17.00;11.88;;;;;;;-1.29;79.97;96540.74;1759563;80;21505;-79
2021/01/19 01:12:34;;;;;;;16.85;10.32;;;;;;;-1.29;80.60;96541.20;1724670;80;21114;-79
2021/01/19 01:15:00;;;;;;;14.03;10.03;;;;;;;-1.27;80.63;96538.09;1766229;80;21106;-79
2021/01/19 01:17:27;;;;;;;15.45;9.65;;;;;;;-1.27;80.80;96532.98;1730605;80;21352;-79
2021/01/19 01:19:53;;;;;;;13.45;9.80;;;;;;;-1.26;80.99;96535.89;1693729;83;21145;-79
2021/01/19 01:22:19;;;;;;;14.65;10.93;;;;;;;-1.27;81.59;96526.16;1756926;81;21115;-79
2021/01/19 01:24:45;;;;;;;12.90;10.08;;;;;;;-1.24;81.17;96532.77;1746793;81;21316;-79
2021/01/19 01:27:11;;;;;;;11.78;8.43;;;;;;;-1.22;81.37;96532.20;1757265;80;21138;-79
2021/01/19 01:29:37;;;;;;;13.45;10.28;;;;;;;-1.22;81.30;96529.19;1682331;83;21121;-79
2021/01/19 01:32:05;;;;;;;11.15;7.67;;;;;;;-1.19;81.25;96526.07;1719967;81;21222;-79
2021/01/19 01:34:31;;;;;;;9.85;6.72;;;;;;;-1.18;81.62;96520.86;1685983;83;21157;-79
2021/01/19 01:36:57;;;;;;;14.47;10.43;;;;;;;-1.17;81.53;96516.58;1707383;84;21126;-79
2021/01/19 01:39:23;;;;;;;12.65;8.53;;;;;;;-1.16;81.45;96512.64;1721201;81;21130;-80
2021/01/19 01:41:49;;;;;;;14.07;10.32;;;;;;;-1.14;81.60;96508.28;1695254;83;21160;-79
2021/01/19 01:44:15;;;;;;;10.15;8.33;;;;;;;-1.13;81.74;96510.37;1715443;83;21105;-79
2021/01/19 01:46:42;;;;;;;11.75;8.55;;;;;;;-1.13;81.66;96509.09;1709861;83;21132;-80
2021/01/19 01:49:08;;;;;;;12.35;9.05;;;;;;;-1.14;81.94;96507.00;1717323;83;21156;-79
2021/01/19 01:51:34;;;;;;;13.83;9.53;;;;;;;-1.14;82.24;96498.08;1722771;83;21366;-79
2021/01/19 01:54:01;;;;;;;10.65;7.37;;;;;;;-1.10;82.02;96507.14;1716664;83;21441;-79
2021/01/19 01:56:27;;;;;;;12.60;9.03;;;;;;;-1.05;82.08;96506.34;1720095;83;21140;-79
2021/01/19 01:58:53;;;;;;;10.65;7.20;;;;;;;-1.06;81.98;96498.34;1710860;83;21949;-80
2021/01/19 02:01:20;;;;;;;10.20;7.92;;;;;;;-1.07;82.12;96490.80;1742029;81;21254;-79
2021/01/19 02:03:46;;;;;;;10.98;8.00;;;;;;;-1.05;82.13;96494.87;1710340;83;21147;-79
2021/01/19 02:06:15;;;;;;;9.65;7.87;;;;;;;-1.02;82.12;96493.38;1733975;81;21468;-80
2021/01/19 02:09:14;;;;;;;7.72;5.72;;;;;;;-1.00;82.08;96494.54;1738575;81;21087;-80
2021/01/19 02:11:50;;;;;;;9.40;7.12;;;;;;;-0.96;82.43;96495.98;1743168;81;21119;-79
2021/01/19 02:14:37;;;;;;;10.90;7.50;;;;;;;-0.97;82.07;96489.25;1701896;83;21110;-78
2021/01/19 02:17:24;;;;;;;9.48;7.03;;;;;;;-0.95;82.17;96487.40;1738774;81;21127;-79
2021/01/19 02:20:29;;;;;;;11.30;7.17;;;;;;;-0.94;82.25;96488.56;1652652;83;21138;-76
2021/01/19 02:23:13;;;;;;;7.78;6.95;;;;;;;-0.95;82.17;96487.40;1690024;83;21125;-77
2021/01/19 02:26:16;;;;;;;12.23;8.18;;;;;;;-0.92;82.50;96489.73;1719352;82;21125;-76
2021/01/19 02:28:54;;;;;;;6.87;5.05;;;;;;;-0.91;82.37;96484.98;1722013;82;21236;-77
2021/01/19 02:32:02;;;;;;;10.53;8.35;;;;;;;-0.89;82.62;96486.95;1689672;83;21916;-76
2021/01/19 02:35:01;;;;;;;8.13;6.33;;;;;;;-0.89;82.40;96489.97;1718386;82;21120;-76
2021/01/19 02:37:31;;;;;;;8.13;6.55;;;;;;;-0.86;82.51;96485.45;1629073;83;21371;-76
2021/01/19 02:40:08;;;;;;;8.78;6.78;;;;;;;-0.86;82.41;96489.75;1708367;83;21148;-76
2021/01/19 02:42:46;;;;;;;9.73;7.60;;;;;;;-0.87;82.45;96491.95;1752759;80;21239;-76
2021/01/19 02:45:12;;;;;;;6.92;5.85;;;;;;;-0.87;82.44;96485.11;1749902;80;21164;-76
2021/01/19 02:47:38;;;;;;;8.58;6.67;;;;;;;-0.86;82.75;96482.09;1771789;80;21125;-76
2021/01/19 02:50:10;;;;;;;7.60;6.17;;;;;;;-0.85;82.69;96484.53;1754514;80;21217;-77
2021/01/19 02:52:36;;;;;;;6.83;4.60;;;;;;;-0.83;82.75;96488.25;1760122;80;21113;-76
2021/01/19 02:55:04;;;;;;;5.20;4.40;;;;;;;-0.81;83.34;96472.40;1755205;80;21224;-77
2021/01/19 02:57:51;;;;;;;5.65;4.25;;;;;;;-0.81;82.89;96484.69;1763875;80;21130;-76
2021/01/19 03:00:25;;;;;;;9.03;6.45;;;;;;;-0.81;82.82;96481.33;1752545;80;21117;-76
2021/01/19 03:02:52;;;;;;;9.83;7.70;;;;;;;-0.81;82.73;96483.41;1743658;80;21106;-76
2021/01/19 03:05:18;;;;;;;8.65;6.60;;;;;;;-0.78;82.81;96480.64;1749142;80;21113;-77
2021/01/19 03:07:44;;;;;;;7.35;5.33;;;;;;;-0.78;82.81;96482.38;1740817;80;21129;-77
2021/01/19 03:10:12;;;;;;;8.20;5.50;;;;;;;-0.79;82.85;96479.02;1757713;80;21201;-77
2021/01/19 03:12:42;;;;;;;8.70;6.60;;;;;;;-0.80;82.89;96471.01;1764904;80;21110;-76
2021/01/19 03:15:09;;;;;;;6.92;6.20;;;;;;;-0.80;82.84;96472.28;1756033;80;21260;-76
2021/01/19 03:17:35;;;;;;;8.68;6.33;;;;;;;-0.75;82.87;96471.48;1775182;80;21145;-76
2021/01/19 03:20:04;;;;;;;7.80;6.62;;;;;;;-0.75;82.84;96466.84;1763013;80;21150;-76
2021/01/19 03:22:31;;;;;;;7.37;5.53;;;;;;;-0.75;82.84;96474.03;1749159;80;21364;-76
2021/01/19 03:24:57;;;;;;;8.03;6.33;;;;;;;-0.72;83.08;96470.45;1756673;80;21118;-77
2021/01/19 03:27:23;;;;;;;7.42;6.25;;;;;;;-0.75;83.07;96463.83;1727839;80;21444;-76
2021/01/19 03:29:50;;;;;;;8.90;5.72;;;;;;;-0.75;83.06;96462.55;1755325;80;21131;-76
2021/01/19 03:32:16;;;;;;;11.48;8.05;;;;;;;-0.75;83.10;96465.56;1756701;80;21933;-76
2021/01/19 03:34:42;;;;;;;7.85;6.83;;;;;;;-0.74;82.98;96462.91;1758618;80;21122;-77
2021/01/19 03:37:08;;;;;;;9.00;7.03;;;;;;;-0.74;83.12;96452.70;1768395;80;21142;-76
2021/01/19 03:39:35;;;;;;;6.85;5.22;;;;;;;-0.74;83.30;96454.44;1764876;80;21240;-76
2021/01/19 03:42:02;;;;;;;5.17;4.10;;;;;;;-0.73;83.14;96460.70;1752139;80;21236;-76
2021/01/19 03:44:28;;;;;;;7.03;5.58;;;;;;;-0.74;83.25;96459.08;1720074;80;21260;-76
2021/01/19 03:46:54;;;;;;;5.58;4.90;;;;;;;-0.74;83.22;96456.98;1767573;80;21122;-79
2021/01/19 03:49:20;;;;;;;8.20;6.30;;;;;;;-0.75;83.21;96456.64;1767163;80;21138;-79
2021/01/19 03:51:47;;;;;;;8.03;5.95;;;;;;;-0.73;83.13;96456.87;1772709;80;21089;-79
2021/01/19 03:54:13;;;;;;;5.62;5.03;;;;;;;-0.71;83.22;96456.77;1762166;80;21117;-80
2021/01/19 03:56:39;;;;;;;7.90;6.20;;;;;;;-0.71;83.29;96455.02;1773794;80;21137;-78
2021/01/19 03:59:05;;;;;;;6.17;5.58;;;;;;;-0.68;83.28;96460.36;1772931;80;21130;-79
2021/01/19 04:01:31;;;;;;;6.22;5.17;;;;;;;-0.63;83.23;96457.03;1762547;80;21129;-79
2021/01/19 04:03:58;;;;;;;7.72;5.50;;;;;;;-0.62;83.22;96462.03;1766919;80;21137;-78
2021/01/19 04:06:24;;;;;;;6.60;5.35;;;;;;;-0.61;83.30;96447.53;1754162;80;21150;-78
2021/01/19 04:08:50;;;;;;;6.62;5.62;;;;;;;-0.55;83.12;96457.74;1770671;80;21109;-79
2021/01/19 04:11:16;;;;;;;9.23;5.28;;;;;;;-0.53;83.13;96457.98;1764439;80;21348;-78
2021/01/19 04:13:42;;;;;;;6.65;5.37;;;;;;;-0.52;83.02;96458.79;1759264;80;21130;-79
2021/01/19 04:16:08;;;;;;;6.03;5.05;;;;;;;-0.50;82.96;96453.92;1765012;80;21116;-78
2021/01/19 04:18:34;;;;;;;6.53;5.42;;;;;;;-0.49;82.92;96454.73;1769584;80;21077;-79
2021/01/19 04:21:00;;;;;;;7.55;5.95;;;;;;;-0.46;82.87;96454.53;1761511;80;21298;-79
2021/01/19 04:23:26;;;;;;;6.67;5.75;;;;;;;-0.45;82.85;96453.61;1770984;80;21114;-79
2021/01/19 04:25:52;;;;;;;9.93;6.75;;;;;;;-0.44;82.98;96452.68;1758623;80;21079;-79
2021/01/19 04:28:20;;;;;;;11.05;7.35;;;;;;;-0.44;82.84;96456.05;1760273;80;21224;-79
2021/01/19 04:30:47;;;;;;;8.75;6.42;;;;;;;-0.44;82.85;96462.42;1750747;80;21098;-78
2021/01/19 04:33:14;;;;;;;8.90;7.20;;;;;;;-0.43;82.79;96454.31;1755679;80;21125;-79
2021/01/19 04:35:41;;;;;;;9.33;7.30;;;;;;;-0.43;82.75;96459.41;1764413;80;21133;-79
2021/01/19 04:38:08;;;;;;;9.88;7.62;;;;;;;-0.41;82.79;96459.64;1769762;80;21114;-78
2021/01/19 04:40:35;;;;;;;9.13;6.85;;;;;;;-0.40;82.72;96453.61;1762802;80;21240;-79
2021/01/19 04:43:03;;;;;;;7.12;6.28;;;;;;;-0.39;82.72;96459.06;1749476;81;21162;-79
2021/01/19 04:45:31;;;;;;;9.23;7.53;;;;;;;-0.38;82.64;96458.60;1739859;81;21127;-79
2021/01/19 04:47:57;;;;;;;9.50;7.70;;;;;;;-0.37;82.63;96453.84;1752182;80;21133;-79
2021/01/19 04:50:23;;;;;;;10.43;8.03;;;;;;;-0.34;82.52;96453.61;1742259;81;21126;-78
2021/01/19 04:52:49;;;;;;;10.63;8.70;;;;;;;-0.35;82.63;96452.80;1757190;81;21117;-78
2021/01/19 04:55:25;;;;;;;11.12;7.15;;;;;;;-0.36;82.65;96457.56;1728419;81;21130;-79
2021/01/19 04:57:59;;;;;;;8.95;7.00;;;;;;;-0.37;82.78;96453.38;1686518;84;21352;-77
2021/01/19 05:00:36;;;;;;;9.60;7.00;;;;;;;-0.38;82.80;96462.43;1747457;81;21111;-77
2021/01/19 05:03:19;;;;;;;9.58;7.25;;;;;;;-0.36;82.89;96465.22;1746340;81;21113;-77
2021/01/19 05:05:58;;;;;;;9.93;7.53;;;;;;;-0.35;82.77;96467.31;1748121;81;21131;-77
2021/01/19 05:08:27;;;;;;;13.38;8.98;;;;;;;-0.35;82.86;96466.03;1735480;81;21436;-77
2021/01/19 05:10:58;;;;;;;13.05;10.53;;;;;;;-0.35;82.87;96460.92;1682100;84;21166;-77
2021/01/19 05:13:58;;;;;;;13.93;9.13;;;;;;;-0.34;82.92;96467.19;1749332;81;21247;-77
2021/01/19 05:16:35;;;;;;;12.58;8.98;;;;;;;-0.33;82.91;96465.02;1677649;84;21197;-77
2021/01/19 05:19:04;;;;;;;65.55;45.05;;;;;;;-0.31;82.90;96467.45;1697750;83;21157;-77
2021/01/19 05:21:37;;;;;;;65.47;43.52;;;;;;;-0.32;82.97;96465.37;1701641;84;21126;-77
2021/01/19 05:24:04;;;;;;;23.20;15.63;;;;;;;-0.31;83.06;96468.27;1713760;83;21253;-77
2021/01/19 05:26:30;;;;;;;12.88;9.15;;;;;;;-0.29;83.12;96471.17;1712714;83;21360;-77
2021/01/19 05:28:56;;;;;;;12.65;10.48;;;;;;;-0.29;83.20;96464.33;1706470;81;21121;-77
2021/01/19 05:31:27;;;;;;;13.68;9.70;;;;;;;-0.27;83.14;96473.14;1751150;81;21131;-76
2021/01/19 05:33:58;;;;;;;10.60;8.18;;;;;;;-0.26;83.18;96466.64;1677314;84;21122;-77
2021/01/19 05:36:28;;;;;;;11.08;8.00;;;;;;;-0.26;83.22;96470.94;1743131;81;21276;-77
2021/01/19 05:38:55;;;;;;;10.82;8.30;;;;;;;-0.27;83.33;96462.47;1738966;81;21127;-77
2021/01/19 05:41:35;;;;;;;12.82;8.40;;;;;;;-0.25;83.40;96475.94;1746200;80;21115;-77
2021/01/19 05:44:30;;;;;;;10.88;8.35;;;;;;;-0.26;83.47;96469.20;1688739;84;21106;-77
2021/01/19 05:47:02;;;;;;;13.72;11.48;;;;;;;-0.24;83.68;96464.79;1749774;80;21117;-77
2021/01/19 05:49:42;;;;;;;13.80;11.80;;;;;;;-0.22;83.71;96472.33;1759587;80;21097;-77
2021/01/19 05:52:15;;;;;;;12.00;9.78;;;;;;;-0.18;83.71;96469.44;1756851;80;21105;-77
2021/01/19 05:54:46;;;;;;;13.22;9.90;;;;;;;-0.19;83.83;96469.08;1751675;80;21127;-77
2021/01/19 05:57:23;;;;;;;8.95;7.17;;;;;;;-0.19;83.86;96480.58;1760624;80;21110;-77
2021/01/19 05:59:59;;;;;;;11.20;8.40;;;;;;;-0.16;84.24;96474.45;1764489;80;21070;-77
2021/01/19 06:02:39;;;;;;;9.35;7.35;;;;;;;-0.16;83.89;96467.61;1691036;83;21256;-77
2021/01/19 06:05:12;;;;;;;16.17;11.55;;;;;;;-0.20;84.03;96471.29;1743172;80;21130;-77
2021/01/19 06:07:38;;;;;;;14.30;9.70;;;;;;;-0.23;83.99;96465.60;1728888;80;21540;-77
2021/01/19 06:10:11;;;;;;;10.58;8.20;;;;;;;-0.24;83.97;96458.41;1722993;80;21126;-77
2021/01/19 06:12:37;;;;;;;13.38;8.03;;;;;;;-0.22;83.97;96462.13;1718786;80;21145;-77
2021/01/19 06:15:05;;;;;;;11.78;8.98;;;;;;;-0.23;84.12;96458.75;1733560;80;21248;-76
2021/01/19 06:17:31;;;;;;;14.83;10.35;;;;;;;-0.25;83.91;96453.41;1743444;80;21146;-77
2021/01/19 06:19:58;;;;;;;12.37;8.95;;;;;;;-0.24;83.83;96467.34;1723034;82;21586;-77
2021/01/19 06:22:27;;;;;;;17.95;11.40;;;;;;;-0.21;83.75;96459.45;1731955;80;21114;-77
2021/01/19 06:24:57;;;;;;;18.90;13.83;;;;;;;-0.19;83.72;96460.14;1740346;80;21110;-77
2021/01/19 06:27:30;;;;;;;71.42;43.68;;;;;;;-0.18;83.93;96457.94;1732147;80;21090;-77
2021/01/19 06:30:03;;;;;;;15.72;11.22;;;;;;;-0.18;83.71;96463.05;1727120;81;21492;-77
2021/01/19 06:32:31;;;;;;;131.63;50.95;;;;;;;-0.17;83.68;96463.39;1725935;80;21086;-77
2021/01/19 06:35:17;;;;;;;111.30;44.53;;;;;;;-0.16;83.57;96461.69;1734434;80;21313;-77
2021/01/19 06:37:45;;;;;;;53.58;24.82;;;;;;;-0.14;83.61;96461.11;1731518;80;21087;-76
2021/01/19 06:40:13;;;;;;;29.80;18.65;;;;;;;-0.13;83.52;96460.98;1727904;80;21240;-77
2021/01/19 06:42:40;;;;;;;255.52;96.15;;;;;;;-0.10;83.48;96459.48;1737531;80;21111;-79
2021/01/19 06:45:10;;;;;;;72.42;25.62;;;;;;;-0.06;83.32;96469.00;1731367;80;21090;-79
2021/01/19 06:47:51;;;;;;;20.08;9.55;;;;;;;-0.02;83.30;96464.81;1736681;80;21293;-77
2021/01/19 06:50:21;;;;;;;42.00;16.90;;;;;;;-0.03;83.23;96470.85;1735884;80;21110;-77
2021/01/19 06:53:00;;;;;;;83.55;30.20;;;;;;;-0.03;83.13;96464.93;1736181;80;21075;-77
2021/01/19 06:55:44;;;;;;;131.10;45.83;;;;;;;-0.02;83.12;96472.94;1735961;80;21142;-77
2021/01/19 06:58:16;;;;;;;53.35;28.05;;;;;;;0.01;83.11;96466.81;1737245;80;21519;-77
2021/01/19 07:00:43;;;;;;;308.63;86.97;;;;;;;0.04;83.10;96468.67;1722743;80;21244;-78
2021/01/19 07:03:23;;;;;;;104.05;33.33;;;;;;;0.10;83.03;96478.89;1739387;80;21114;-77
2021/01/19 07:06:00;;;;;;;11.93;8.18;;;;;;;0.13;82.79;96475.62;1737912;80;21110;-76
2021/01/19 07:09:00;;;;;;;86.47;29.05;;;;;;;0.12;82.60;96473.20;1735479;82;21208;-77
2021/01/19 07:11:53;;;;;;;73.80;31.00;;;;;;;0.12;82.62;96477.84;1730756;80;21137;-77
2021/01/19 07:14:30;;;;;;;126.25;44.85;;;;;;;0.18;82.71;96481.70;1688559;82;21245;-77
2021/01/19 07:16:57;;;;;;;108.10;38.02;;;;;;;0.22;82.68;96483.89;1737080;80;21094;-77
2021/01/19 07:19:49;;;;;;;124.85;43.65;;;;;;;0.26;82.47;96483.20;1746775;80;21079;-77
2021/01/19 07:22:47;;;;;;;86.57;33.95;;;;;;;0.30;82.45;96479.00;1742902;80;21158;-77
2021/01/19 07:25:12;;;;;;;30.72;16.07;;;;;;;0.30;82.48;96466.69;1739913;80;21128;-77
2021/01/19 07:27:39;;;;;;;42.93;20.08;;;;;;;0.29;82.38;96476.10;1737475;80;21480;-77
2021/01/19 07:30:08;;;;;;;24.72;11.55;;;;;;;0.28;82.47;96475.75;1734262;80;21234;-77
2021/01/19 07:32:34;;;;;;;43.78;16.15;;;;;;;0.27;82.37;96465.66;1750969;80;21443;-77
2021/01/19 07:35:00;;;;;;;104.92;38.30;;;;;;;0.27;82.33;96463.91;1744766;80;21118;-77
2021/01/19 07:37:35;;;;;;;165.62;56.73;;;;;;;0.35;82.42;96470.20;1736144;80;21257;-77
2021/01/19 07:40:04;;;;;;;48.85;23.02;;;;;;;0.41;82.43;96473.55;1746446;80;21158;-77
2021/01/19 07:42:33;;;;;;;46.48;22.65;;;;;;;0.41;82.23;96472.28;1735189;81;21103;-76
2021/01/19 07:45:03;;;;;;;36.15;15.70;;;;;;;0.42;82.30;96467.05;1716497;81;21979;-77
2021/01/19 07:47:36;;;;;;;50.15;21.70;;;;;;;0.47;82.20;96461.58;1718613;81;21472;-77
2021/01/19 07:50:05;;;;;;;76.60;36.45;;;;;;;0.48;82.15;96464.01;1720017;81;21225;-79
2021/01/19 07:52:37;;;;;;;56.95;28.00;;;;;;;0.52;82.18;96461.59;1723984;81;21428;-79
2021/01/19 07:55:21;;;;;;;16.82;9.23;;;;;;;0.54;82.23;96462.75;1715249;82;21118;-78
2021/01/19 07:57:50;;;;;;;34.95;17.23;;;;;;;0.56;82.23;96462.97;1726268;81;21143;-79
2021/01/19 08:00:24;;;;;;;18.48;10.63;;;;;;;0.63;82.05;96463.77;1686960;83;21572;-78
2021/01/19 08:03:03;;;;;;;29.63;15.10;;;;;;;0.67;81.99;96461.34;1700689;84;21118;-80
2021/01/19 08:05:29;;;;;;;61.60;29.67;;;;;;;0.73;82.09;96471.09;1689343;83;21138;-80
2021/01/19 08:07:57;;;;;;;68.75;33.10;;;;;;;0.84;82.15;96465.96;1689717;83;21834;-79
2021/01/19 08:10:29;;;;;;;36.93;17.32;;;;;;;0.89;81.75;96457.45;1709773;81;21286;-79
2021/01/19 08:12:56;;;;;;;;;;;;;;;0.91;81.31;96451.74;1676331;84;21241;-79
2021/01/19 08:15:32;;;;;;;62.80;29.52;;;;;;;0.93;81.24;96452.44;1676277;84;20136;-79
2021/01/19 08:18:00;;;;;;;68.75;30.68;;;;;;;0.93;81.34;96448.59;1690107;83;21149;-79
2021/01/19 08:20:32;;;;;;;25.68;13.80;;;;;;;0.95;81.24;96455.68;1684426;83;21162;-79
2021/01/19 08:23:17;;;;;;;38.02;18.95;;;;;;;0.97;80.97;96447.41;1681965;84;21126;-79
2021/01/19 08:25:43;;;;;;;49.42;25.12;;;;;;;1.01;81.15;96448.82;1693624;83;21138;-79
2021/01/19 08:28:10;;;;;;;16.42;9.53;;;;;;;1.03;81.09;96436.72;1693325;84;21133;-80
2021/01/19 08:30:40;;;;;;;13.13;9.15;;;;;;;1.03;80.82;96451.25;1686565;83;21250;-79
2021/01/19 08:33:05;;;;;;;9.50;7.70;;;;;;;1.02;80.89;96444.05;1692296;83;21131;-78
2021/01/19 08:35:31;;;;;;;41.05;25.37;;;;;;;1.03;80.78;96452.06;1685410;83;21125;-79
2021/01/19 08:38:01;;;;;;;74.22;39.20;;;;;;;1.12;81.01;96456.91;1685579;83;21122;-79
2021/01/19 08:40:30;;;;;;;26.57;16.17;;;;;;;1.22;80.96;96451.42;1683767;83;21257;-78
2021/01/19 08:42:56;;;;;;;16.82;11.15;;;;;;;1.24;80.70;96448.27;1692642;83;21122;-78
2021/01/19 08:45:30;;;;;;;11.70;7.40;;;;;;;1.30;80.72;96461.88;1706516;82;21137;-79
2021/01/19 08:47:59;;;;;;;46.95;26.80;;;;;;;1.41;80.73;96461.80;1704354;84;21114;-76
2021/01/19 08:50:27;;;;;;;39.98;22.22;;;;;;;1.51;80.60;96461.89;1705208;83;21090;-79
2021/01/19 08:52:54;;;;;;;25.57;14.98;;;;;;;1.48;80.00;96457.83;1687048;84;21547;-79
2021/01/19 08:55:22;;;;;;;35.00;20.02;;;;;;;1.43;80.11;96459.93;1707037;83;21126;-78
2021/01/19 08:57:55;;;;;;;46.73;31.33;;;;;;;1.46;80.29;96463.98;1695301;83;21095;-79
2021/01/19 09:00:34;;;;;;;41.23;25.68;;;;;;;1.46;80.15;96463.55;1694412;83;21145;-78
2021/01/19 09:03:17;;;;;;;45.75;26.17;;;;;;;1.48;80.35;96468.55;1687122;83;21157;-80
2021/01/19 09:05:43;;;;;;;40.33;23.42;;;;;;;1.47;80.32;96464.36;1700234;83;21129;-79
2021/01/19 09:08:18;;;;;;;24.37;15.25;;;;;;;1.46;80.41;96478.07;1683684;83;21394;-79
2021/01/19 09:10:45;;;;;;;21.57;12.25;;;;;;;1.48;80.38;96473.20;1678898;83;21136;-78
2021/01/19 09:13:11;;;;;;;26.25;14.93;;;;;;;1.38;80.12;96451.81;1670952;84;21282;-77
2021/01/19 09:15:42;;;;;;;32.03;19.23;;;;;;;1.52;79.83;96471.20;1656974;84;21154;-77
2021/01/19 09:18:14;;;;;;;16.52;11.53;;;;;;;1.51;79.87;96477.25;1690684;83;21145;-78
2021/01/19 09:20:42;;;;;;;21.57;14.87;;;;;;;1.49;80.09;96477.38;1690431;84;21098;-77
2021/01/19 09:23:16;;;;;;;14.05;9.25;;;;;;;1.52;80.07;96475.50;1691742;83;21129;-78
2021/01/19 09:25:46;;;;;;;14.15;9.63;;;;;;;1.49;79.90;96478.66;1693554;84;21152;-78
2021/01/19 09:28:14;;;;;;;9.60;7.87;;;;;;;1.49;80.04;96477.38;1698334;83;21308;-78
2021/01/19 09:30:40;;;;;;;14.47;11.60;;;;;;;1.53;80.27;96475.84;1678185;84;21411;-78
2021/01/19 09:33:09;;;;;;;9.40;6.47;;;;;;;1.58;80.25;96477.09;1688165;83;21404;-78
2021/01/19 09:35:37;;;;;;;8.73;5.58;;;;;;;1.55;79.86;96472.69;1676623;83;21248;-77
2021/01/19 09:38:03;;;;;;;8.90;6.05;;;;;;;1.48;79.60;96470.64;1695713;83;21177;-77
2021/01/19 09:40:32;;;;;;;11.88;7.95;;;;;;;1.45;79.74;96468.77;1686918;83;21364;-78
2021/01/19 09:42:58;;;;;;;15.48;10.45;;;;;;;1.41;79.96;96468.67;1660271;84;21413;-77
2021/01/19 09:45:24;;;;;;;16.73;11.95;;;;;;;1.39;80.25;96470.08;1679671;83;21104;-78
2021/01/19 09:47:50;;;;;;;15.53;11.55;;;;;;;1.38;80.38;96472.77;1690640;84;21433;-77
2021/01/19 09:50:16;;;;;;;13.95;10.08;;;;;;;1.37;80.50;96471.14;1685949;83;21132;-77
2021/01/19 09:52:46;;;;;;;15.03;10.60;;;;;;;1.44;80.53;96466.67;1704627;83;21152;-77
2021/01/19 09:55:14;;;;;;;16.82;12.33;;;;;;;1.53;80.52;96461.30;1687988;84;21163;-78
2021/01/19 09:57:40;;;;;;;18.57;13.18;;;;;;;1.55;80.30;96459.42;1698132;83;21132;-77
2021/01/19 10:00:09;;;;;;;10.40;8.35;;;;;;;1.62;80.48;96455.41;1696277;83;22003;-77
2021/01/19 10:02:37;;;;;;;10.82;8.30;;;;;;;1.62;79.88;96446.45;1700317;83;21152;-77
2021/01/19 10:05:07;;;;;;;13.32;8.83;;;;;;;1.64;80.00;96439.95;1693570;83;21270;-79
2021/01/19 10:07:34;;;;;;;15.63;9.40;;;;;;;1.75;80.16;96434.27;1691206;84;21147;-79
2021/01/19 10:10:11;;;;;;;13.45;8.48;;;;;;;1.86;79.67;96423.15;1696448;84;21350;-79
2021/01/19 10:12:39;;;;;;;40.85;18.12;;;;;;;1.93;79.69;96415.28;1700396;84;21172;-79
2021/01/19 10:15:10;;;;;;;30.00;13.00;;;;;;;2.06;79.39;96411.23;1690247;84;21156;-77
2021/01/19 10:17:36;;;;;;;70.47;46.00;;;;;;;2.10;79.00;96401.87;1688596;84;21160;-78
2021/01/19 10:20:14;;;;;;;34.70;19.42;;;;;;;2.29;79.51;96396.03;1684354;83;21588;-77
2021/01/19 10:22:43;;;;;;;44.18;22.22;;;;;;;2.44;78.62;96391.79;1694776;84;21191;-77
2021/01/19 10:25:13;;;;;;;52.90;23.83;;;;;;;2.52;78.40;96389.39;1693973;84;21128;-78
2021/01/19 10:27:44;;;;;;;43.40;19.30;;;;;;;2.49;78.03;96388.38;1688227;83;21167;-77
2021/01/19 10:30:11;;;;;;;63.60;27.37;;;;;;;2.41;77.95;96388.55;1696789;84;21121;-78
2021/01/19 10:32:50;;;;;;;44.75;18.27;;;;;;;2.43;78.31;96381.19;1676332;83;21263;-77
2021/01/19 10:35:32;;;;;;;61.13;23.90;;;;;;;2.43;78.09;96386.32;1689197;83;21254;-78
2021/01/19 10:38:02;;;;;;;95.07;37.40;;;;;;;2.40;77.92;96383.55;1695983;84;21124;-77
2021/01/19 10:40:29;;;;;;;80.72;36.58;;;;;;;2.41;78.00;96375.73;1694695;84;21136;-78
2021/01/19 10:42:55;;;;;;;23.87;13.05;;;;;;;2.44;77.98;96372.11;1693146;84;21337;-78
2021/01/19 10:45:30;;;;;;;10.35;7.03;;;;;;;2.41;77.65;96369.79;1698401;84;21309;-78
2021/01/19 10:47:58;;;;;;;25.20;14.80;;;;;;;2.35;76.91;96372.89;1697134;83;21543;-77
2021/01/19 10:50:28;;;;;;;19.98;11.93;;;;;;;2.30;77.62;96375.04;1683634;83;21375;-78
2021/01/19 10:53:03;;;;;;;21.57;12.73;;;;;;;2.26;77.26;96369.81;1675306;84;21144;-77
2021/01/19 10:55:30;;;;;;;36.95;25.25;;;;;;;2.23;77.64;96364.48;1691141;84;21127;-79
2021/01/19 10:58:00;;;;;;;34.50;19.95;;;;;;;2.27;77.71;96358.14;1689825;84;21357;-79
2021/01/19 11:00:27;;;;;;;26.90;15.08;;;;;;;2.20;77.54;96352.40;1674503;83;21187;-79
2021/01/19 11:02:54;;;;;;;25.55;16.70;;;;;;;2.13;77.83;96345.72;1674467;84;21247;-79
2021/01/19 11:05:22;;;;;;;20.08;11.80;;;;;;;2.20;77.90;96350.64;1683655;83;21333;-78
2021/01/19 11:07:50;;;;;;;20.52;13.53;;;;;;;2.32;77.59;96351.36;1691682;83;21265;-77
2021/01/19 11:10:18;;;;;;;18.98;11.97;;;;;;;2.43;77.40;96352.52;1679052;84;21094;-78
2021/01/19 11:12:44;;;;;;;21.68;14.20;;;;;;;2.52;77.16;96340.66;1693315;83;21157;-78
2021/01/19 11:15:11;;;;;;;13.53;9.33;;;;;;;2.58;77.00;96336.27;1719485;81;21445;-78
2021/01/19 11:17:37;;;;;;;11.43;7.65;;;;;;;2.60;76.55;96336.95;1667495;84;21138;-78
2021/01/19 11:20:11;;;;;;;10.38;7.53;;;;;;;2.64;76.44;96338.33;1685383;84;21154;-78
2021/01/19 11:22:37;;;;;;;12.10;9.35;;;;;;;2.66;75.60;96325.70;1677785;83;21142;-78
2021/01/19 11:25:05;;;;;;;10.70;7.80;;;;;;;2.69;75.94;96336.16;1680532;84;21159;-77
2021/01/19 11:27:31;;;;;;;6.67;5.30;;;;;;;2.74;75.59;96324.20;1724770;81;21139;-79
2021/01/19 11:29:57;;;;;;;6.25;5.30;;;;;;;2.77;75.25;96320.11;1728841;81;21083;-78
2021/01/19 11:32:24;;;;;;;6.40;4.45;;;;;;;2.82;75.19;96316.66;1692149;83;21161;-78
2021/01/19 11:34:51;;;;;;;6.92;6.22;;;;;;;2.90;74.85;96308.60;1674606;84;21364;-78
2021/01/19 11:37:17;;;;;;;8.50;5.92;;;;;;;2.98;75.11;96306.66;1684292;83;21139;-78
2021/01/19 11:39:43;;;;;;;7.50;5.60;;;;;;;3.07;75.01;96312.70;1655653;84;21292;-79
2021/01/19 11:42:09;;;;;;;8.08;6.33;;;;;;;3.22;74.54;96308.77;1685589;83;21343;-79